Terminal Aerodrome Forecast
Issued by NWS Jackson, KY

Home | Current Version | Previous Version | Text Only | Print | Product List | Glossary On
Versions: 1 2 3 4 5 6 7 8 9 10 11 12 13 14 15 16 17 18
000
FTUS43 KJKL 292300
TAFLOZ
TAF
KLOZ 292337Z 3000/3024 30014G22KT P6SM -DZ BKN022 OVC050
     FM300300 30009G18KT 6SM -SHSN OVC015
     FM301600 33010G18KT P6SM OVC022=

USA.gov is the U.S. government's official web portal to all federal, state and local government web resources and services.